TAF and METAR

Decoding for American and Canadian METARs and TAFs is not fully implemented.

Could not understand the following METAR

CWEU 232300Z 26011KT 15SM FEW030 OVC065 05/00 A2958 RMK SC1SC8 SC TR SLP021
No TAF available for Eureka